Time;durP1;ratioP1;P1;durP2;ratioP2;P2;SDS_P1;SDS_P2;PMS_P1;PMS_P2;Temp;Humidity;BMP_temperature;BMP_pressure;BME280_temperature;BME280_humidity;BME280_pressure;Samples;Min_cycle;Max_cycle;Signal;HPM_P1;HPM_P2
2022/03/17 00:01:52;;;;;;;22.00;16.52;;;;;;;;;;5050828;28;20040;-70
2022/03/17 00:04:21;;;;;;;23.48;15.95;;;;;;;;;;5034187;28;20078;-69
2022/03/17 00:06:48;;;;;;;23.45;16.67;;;;;;;;;;5051781;28;20082;-70
2022/03/17 00:09:14;;;;;;;21.25;16.60;;;;;;;;;;5068655;28;20480;-70
2022/03/17 00:11:40;;;;;;;21.98;15.85;;;;;;;;;;5050087;28;20047;-70
2022/03/17 00:14:06;;;;;;;24.50;17.70;;;;;;;;;;5068620;28;20044;-70
2022/03/17 00:16:32;;;;;;;23.25;17.13;;;;;;;;;;5068588;28;20428;-69
2022/03/17 00:18:58;;;;;;;20.92;16.17;;;;;;;;;;5051340;28;20040;-70
2022/03/17 00:21:24;;;;;;;21.45;16.40;;;;;;;;;;5069349;28;20484;-70
2022/03/17 00:23:51;;;;;;;22.20;17.10;;;;;;;;;;5053574;28;20068;-70
2022/03/17 00:26:17;;;;;;;24.35;16.58;;;;;;;;;;5074135;28;20041;-70
2022/03/17 00:28:43;;;;;;;22.15;16.85;;;;;;;;;;5054123;28;20090;-70
2022/03/17 00:31:09;;;;;;;25.33;17.40;;;;;;;;;;5055304;28;20392;-69
2022/03/17 00:33:35;;;;;;;22.63;17.52;;;;;;;;;;5072181;28;20028;-69
2022/03/17 00:36:01;;;;;;;22.10;16.80;;;;;;;;;;5072028;28;20123;-70
2022/03/17 00:38:27;;;;;;;24.67;16.77;;;;;;;;;;5071696;28;20083;-69
2022/03/17 00:40:53;;;;;;;24.10;17.15;;;;;;;;;;5054106;28;20051;-70
2022/03/17 00:43:22;;;;;;;23.55;16.73;;;;;;;;;;5054097;28;20033;-70
2022/03/17 00:45:49;;;;;;;25.60;17.60;;;;;;;;;;5072070;28;20052;-70
2022/03/17 00:48:15;;;;;;;24.50;17.60;;;;;;;;;;5052823;28;20692;-70
2022/03/17 00:50:41;;;;;;;22.20;16.98;;;;;;;;;;5037630;28;20487;-70
2022/03/17 00:53:07;;;;;;;22.02;17.42;;;;;;;;;;5053318;28;20056;-70
2022/03/17 00:55:33;;;;;;;23.58;17.83;;;;;;;;;;5055320;28;20048;-70
2022/03/17 00:57:59;;;;;;;25.25;17.40;;;;;;;;;;5054345;28;20036;-69
2022/03/17 01:00:26;;;;;;;24.02;17.80;;;;;;;;;;5038097;28;20048;-70
2022/03/17 01:02:53;;;;;;;24.58;17.85;;;;;;;;;;5072380;28;20407;-70
2022/03/17 01:05:20;;;;;;;26.00;18.00;;;;;;;;;;5072325;28;20045;-70
2022/03/17 01:07:46;;;;;;;23.92;17.52;;;;;;;;;;5037267;28;20086;-70
2022/03/17 01:10:15;;;;;;;21.67;17.40;;;;;;;;;;5052444;28;20045;-70
2022/03/17 01:12:43;;;;;;;27.45;19.27;;;;;;;;;;5053797;28;20041;-70
2022/03/17 01:15:09;;;;;;;22.83;17.95;;;;;;;;;;5053488;28;20048;-70
2022/03/17 01:17:35;;;;;;;23.42;17.63;;;;;;;;;;5052413;28;20047;-70
2022/03/17 01:20:02;;;;;;;25.20;18.65;;;;;;;;;;5071617;28;20509;-69
2022/03/17 01:22:28;;;;;;;26.33;19.00;;;;;;;;;;5052735;28;20131;-70
2022/03/17 01:24:54;;;;;;;26.10;18.48;;;;;;;;;;5070216;28;20075;-70
2022/03/17 01:27:20;;;;;;;24.35;18.92;;;;;;;;;;5053272;28;20037;-70
2022/03/17 01:29:50;;;;;;;27.52;19.65;;;;;;;;;;5053846;28;20067;-69
2022/03/17 01:32:17;;;;;;;30.25;20.10;;;;;;;;;;5052666;28;20040;-70
2022/03/17 01:34:43;;;;;;;25.77;19.65;;;;;;;;;;5052359;28;20086;-70
2022/03/17 01:37:09;;;;;;;28.95;22.00;;;;;;;;;;5053319;28;20041;-70
2022/03/17 01:39:35;;;;;;;25.95;20.70;;;;;;;;;;5071306;28;20075;-70
2022/03/17 01:42:06;;;;;;;28.23;21.00;;;;;;;;;;5069561;28;20392;-70
2022/03/17 01:44:33;;;;;;;29.08;22.70;;;;;;;;;;5036117;28;20511;-69
2022/03/17 01:49:44;;;;;;;31.50;22.75;;;;;;;;;;5070643;28;20742;-70
2022/03/17 01:52:10;;;;;;;28.92;21.67;;;;;;;;;;5053463;28;20065;-70
2022/03/17 01:54:37;;;;;;;29.73;22.40;;;;;;;;;;5053499;28;20092;-70
2022/03/17 01:57:04;;;;;;;29.17;21.20;;;;;;;;;;5070438;28;20048;-70
2022/03/17 01:59:31;;;;;;;26.40;21.52;;;;;;;;;;5052068;28;20366;-70
2022/03/17 02:01:58;;;;;;;29.45;22.30;;;;;;;;;;5052905;28;20078;-70
2022/03/17 02:04:25;;;;;;;30.55;22.95;;;;;;;;;;5070977;28;20122;-70
2022/03/17 02:06:51;;;;;;;30.65;23.88;;;;;;;;;;5052861;28;20036;-70
2022/03/17 02:09:18;;;;;;;30.90;23.08;;;;;;;;;;5051931;28;20039;-70
2022/03/17 02:14:34;;;;;;;29.92;22.20;;;;;;;;;;5068988;28;20083;-70
2022/03/17 02:17:00;;;;;;;30.20;22.33;;;;;;;;;;5036584;28;20443;-70
2022/03/17 02:19:27;;;;;;;30.45;23.77;;;;;;;;;;5052303;28;20090;-70
2022/03/17 02:21:53;;;;;;;31.02;23.75;;;;;;;;;;5070398;28;20466;-69
2022/03/17 02:27:04;;;;;;;30.13;23.50;;;;;;;;;;5070247;28;20074;-69
2022/03/17 02:29:31;;;;;;;33.53;24.42;;;;;;;;;;5035953;28;20549;-70
2022/03/17 02:31:58;;;;;;;32.88;25.55;;;;;;;;;;5052053;28;20047;-63
2022/03/17 02:34:24;;;;;;;33.30;23.83;;;;;;;;;;5052755;28;20089;-63
2022/03/17 02:36:51;;;;;;;33.60;24.40;;;;;;;;;;5052407;28;20453;-63
2022/03/17 02:39:18;;;;;;;34.53;25.15;;;;;;;;;;5069913;28;20039;-64
2022/03/17 02:41:44;;;;;;;31.45;23.83;;;;;;;;;;5051498;28;20185;-63
2022/03/17 02:44:11;;;;;;;33.70;24.63;;;;;;;;;;5051741;28;20055;-64
2022/03/17 02:46:37;;;;;;;32.92;25.35;;;;;;;;;;5052016;28;20055;-68
2022/03/17 02:49:03;;;;;;;31.05;23.88;;;;;;;;;;5051743;28;20033;-66
2022/03/17 02:51:30;;;;;;;32.40;24.70;;;;;;;;;;5069855;28;20044;-64
2022/03/17 02:53:58;;;;;;;32.83;25.63;;;;;;;;;;5052700;28;20385;-63
2022/03/17 02:56:24;;;;;;;32.78;24.38;;;;;;;;;;5069751;28;20047;-64
2022/03/17 02:58:51;;;;;;;35.33;26.52;;;;;;;;;;5051106;28;20465;-64
2022/03/17 03:01:17;;;;;;;33.75;24.90;;;;;;;;;;5034815;28;20106;-63
2022/03/17 03:03:43;;;;;;;31.88;25.70;;;;;;;;;;5018207;28;20083;-64
2022/03/17 03:06:09;;;;;;;34.92;26.40;;;;;;;;;;5051538;28;20098;-63
2022/03/17 03:08:35;;;;;;;32.78;25.80;;;;;;;;;;5050800;28;20046;-63
2022/03/17 03:11:01;;;;;;;36.38;26.50;;;;;;;;;;5069272;28;20526;-63
2022/03/17 03:13:27;;;;;;;34.75;26.25;;;;;;;;;;5051098;28;20473;-64
2022/03/17 03:15:53;;;;;;;36.22;26.45;;;;;;;;;;5051518;28;20054;-63
2022/03/17 03:18:20;;;;;;;32.70;25.30;;;;;;;;;;5051941;28;20366;-64
2022/03/17 03:20:46;;;;;;;34.35;26.88;;;;;;;;;;5051389;28;20049;-64
2022/03/17 03:23:12;;;;;;;35.67;26.05;;;;;;;;;;5051938;28;20461;-63
2022/03/17 03:25:38;;;;;;;34.53;26.40;;;;;;;;;;5069346;28;20037;-63
2022/03/17 03:28:09;;;;;;;35.63;26.67;;;;;;;;;;5051532;28;20051;-63
2022/03/17 03:30:36;;;;;;;34.97;26.90;;;;;;;;;;5051473;28;20062;-63
2022/03/17 03:33:03;;;;;;;34.67;26.33;;;;;;;;;;5051497;28;20036;-64
2022/03/17 03:38:14;;;;;;;34.92;26.30;;;;;;;;;;5050711;28;20131;-63
2022/03/17 03:40:40;;;;;;;34.30;25.73;;;;;;;;;;5051604;28;20052;-63
2022/03/17 03:43:06;;;;;;;36.22;26.15;;;;;;;;;;5050794;28;20401;-64
2022/03/17 03:45:32;;;;;;;34.95;26.17;;;;;;;;;;5033481;28;20052;-63
2022/03/17 03:47:59;;;;;;;37.17;26.83;;;;;;;;;;5069407;28;20098;-63
2022/03/17 03:50:30;;;;;;;38.58;26.58;;;;;;;;;;5051935;28;20044;-63
2022/03/17 03:52:56;;;;;;;38.30;27.58;;;;;;;;;;5050106;28;20040;-64
2022/03/17 03:55:22;;;;;;;39.38;27.42;;;;;;;;;;5051280;28;20045;-63
2022/03/17 03:57:48;;;;;;;38.13;28.42;;;;;;;;;;5051112;28;20036;-63
2022/03/17 04:02:47;;;;;;;39.95;28.27;;;;;;;;;;5051142;28;20045;-64
2022/03/17 04:05:13;;;;;;;39.90;30.45;;;;;;;;;;5050614;28;20052;-63
2022/03/17 04:07:39;;;;;;;41.13;29.02;;;;;;;;;;5068756;28;20097;-63
2022/03/17 04:10:06;;;;;;;43.88;29.25;;;;;;;;;;5068942;28;20068;-64
2022/03/17 04:12:32;;;;;;;41.70;28.85;;;;;;;;;;5068952;28;20029;-63
2022/03/17 04:14:58;;;;;;;42.30;29.95;;;;;;;;;;5051162;28;20052;-63
2022/03/17 04:17:24;;;;;;;41.53;30.40;;;;;;;;;;5051314;28;20048;-64
2022/03/17 04:19:50;;;;;;;47.88;31.05;;;;;;;;;;5051141;28;20036;-63
2022/03/17 04:22:16;;;;;;;48.50;31.63;;;;;;;;;;5050753;28;20051;-63
2022/03/17 04:24:42;;;;;;;44.60;31.48;;;;;;;;;;5034691;28;20151;-64
2022/03/17 04:27:08;;;;;;;46.08;31.33;;;;;;;;;;5050159;28;20132;-63
2022/03/17 04:29:35;;;;;;;51.33;32.53;;;;;;;;;;5050331;28;20029;-63
2022/03/17 04:32:01;;;;;;;48.67;30.45;;;;;;;;;;5033787;28;20075;-63
2022/03/17 04:34:27;;;;;;;41.95;30.05;;;;;;;;;;5067594;28;20128;-64
2022/03/17 04:36:53;;;;;;;41.65;28.25;;;;;;;;;;5067231;28;20041;-63
2022/03/17 04:39:19;;;;;;;25.08;18.35;;;;;;;;;;5049179;28;20044;-63
2022/03/17 04:41:45;;;;;;;16.30;11.27;;;;;;;;;;5048780;28;20033;-63
2022/03/17 04:44:13;;;;;;;10.50;8.25;;;;;;;;;;5048554;28;20550;-63
2022/03/17 04:46:40;;;;;;;11.38;8.45;;;;;;;;;;5049932;28;20400;-63
2022/03/17 04:49:06;;;;;;;11.25;7.57;;;;;;;;;;5049328;28;20045;-63
2022/03/17 04:51:33;;;;;;;11.27;7.45;;;;;;;;;;5069327;28;20040;-63
2022/03/17 04:53:59;;;;;;;9.85;7.05;;;;;;;;;;5067912;28;20036;-63
2022/03/17 04:56:25;;;;;;;10.68;7.45;;;;;;;;;;5050747;28;20139;-63
2022/03/17 04:58:51;;;;;;;10.25;7.22;;;;;;;;;;5033353;28;20504;-63
2022/03/17 05:01:18;;;;;;;8.93;6.57;;;;;;;;;;5067247;28;20040;-63
2022/03/17 05:03:44;;;;;;;7.97;6.57;;;;;;;;;;5049902;28;20048;-63
2022/03/17 05:06:12;;;;;;;7.75;6.10;;;;;;;;;;5068700;28;20378;-63
2022/03/17 05:08:38;;;;;;;7.72;5.90;;;;;;;;;;5050534;28;20044;-63
2022/03/17 05:11:06;;;;;;;8.18;6.43;;;;;;;;;;5052143;28;20048;-63
2022/03/17 05:13:32;;;;;;;9.27;6.30;;;;;;;;;;5071713;28;20111;-63
2022/03/17 05:15:58;;;;;;;10.98;5.70;;;;;;;;;;5071982;28;20067;-63
2022/03/17 05:18:24;;;;;;;8.68;5.78;;;;;;;;;;5071427;28;20531;-63
2022/03/17 05:20:50;;;;;;;10.25;5.80;;;;;;;;;;5071920;28;20112;-63
2022/03/17 05:23:18;;;;;;;9.25;6.30;;;;;;;;;;5071618;28;20040;-64
2022/03/17 05:25:45;;;;;;;10.65;6.57;;;;;;;;;;5053649;28;20048;-64
2022/03/17 05:28:11;;;;;;;13.60;6.75;;;;;;;;;;5071697;28;20507;-64
2022/03/17 05:30:39;;;;;;;10.43;6.53;;;;;;;;;;5053794;28;20110;-64
2022/03/17 05:33:05;;;;;;;9.85;6.40;;;;;;;;;;5070828;28;20615;-64
2022/03/17 05:35:31;;;;;;;12.70;7.30;;;;;;;;;;5071711;28;20083;-64
2022/03/17 05:37:57;;;;;;;13.57;8.05;;;;;;;;;;5053238;28;20174;-65
2022/03/17 05:40:24;;;;;;;12.90;7.70;;;;;;;;;;5069417;28;20116;-64
2022/03/17 05:42:54;;;;;;;11.25;6.72;;;;;;;;;;5071176;28;20044;-64
2022/03/17 05:45:21;;;;;;;14.07;7.53;;;;;;;;;;5051856;28;20056;-64
2022/03/17 05:47:48;;;;;;;13.10;7.30;;;;;;;;;;5071380;28;20067;-64
2022/03/17 05:50:16;;;;;;;14.93;7.47;;;;;;;;;;5052210;28;20485;-64
2022/03/17 05:52:43;;;;;;;15.68;7.97;;;;;;;;;;5052047;28;20040;-64
2022/03/17 05:55:11;;;;;;;17.17;7.20;;;;;;;;;;5052377;28;20045;-65
2022/03/17 05:57:41;;;;;;;19.35;7.82;;;;;;;;;;5050799;28;20044;-64
2022/03/17 06:00:08;;;;;;;18.98;7.35;;;;;;;;;;5051929;28;20044;-64
2022/03/17 06:02:35;;;;;;;13.57;6.80;;;;;;;;;;5051766;28;20090;-64
2022/03/17 06:05:01;;;;;;;14.07;6.57;;;;;;;;;;5071336;28;20036;-64
2022/03/17 06:07:35;;;;;;;15.60;6.53;;;;;;;;;;5070628;28;20105;-64
2022/03/17 06:10:01;;;;;;;13.50;6.35;;;;;;;;;;5053022;28;20433;-64
2022/03/17 06:12:27;;;;;;;13.38;6.60;;;;;;;;;;5052949;28;20364;-64
2022/03/17 06:14:53;;;;;;;16.05;6.55;;;;;;;;;;5053195;28;20044;-64
2022/03/17 06:17:20;;;;;;;11.80;5.55;;;;;;;;;;5052571;28;20036;-64
2022/03/17 06:19:46;;;;;;;14.45;5.47;;;;;;;;;;5070841;28;20370;-64
2022/03/17 06:22:12;;;;;;;13.50;4.85;;;;;;;;;;5070482;28;20131;-64
2022/03/17 06:24:38;;;;;;;11.25;4.50;;;;;;;;;;5052390;28;20052;-64
2022/03/17 06:27:04;;;;;;;9.13;3.90;;;;;;;;;;5070517;28;20051;-64
2022/03/17 06:29:30;;;;;;;11.43;3.40;;;;;;;;;;5051748;28;20040;-64
2022/03/17 06:31:57;;;;;;;11.02;3.20;;;;;;;;;;5053141;28;20415;-64
2022/03/17 06:34:23;;;;;;;10.13;3.58;;;;;;;;;;5036134;28;20040;-64
2022/03/17 06:36:49;;;;;;;11.88;3.25;;;;;;;;;;5070867;28;20429;-64
2022/03/17 06:39:15;;;;;;;12.63;3.03;;;;;;;;;;5052513;28;20515;-64
2022/03/17 06:41:41;;;;;;;10.30;2.78;;;;;;;;;;5051731;28;20484;-64
2022/03/17 06:44:07;;;;;;;10.88;2.67;;;;;;;;;;5052290;28;20515;-64
2022/03/17 06:46:33;;;;;;;9.85;2.53;;;;;;;;;;5052302;28;20485;-64
2022/03/17 06:48:59;;;;;;;10.35;2.80;;;;;;;;;;5068715;28;20604;-64
2022/03/17 06:51:25;;;;;;;13.57;2.55;;;;;;;;;;5070118;28;20411;-64
2022/03/17 06:53:51;;;;;;;9.05;2.45;;;;;;;;;;5051909;28;20401;-64
2022/03/17 06:56:17;;;;;;;13.05;2.60;;;;;;;;;;5069410;28;20464;-64
2022/03/17 06:58:43;;;;;;;15.32;2.75;;;;;;;;;;5070057;28;20388;-64
2022/03/17 07:01:09;;;;;;;10.52;2.20;;;;;;;;;;5069708;28;20056;-64
2022/03/17 07:03:35;;;;;;;13.15;2.63;;;;;;;;;;5052103;28;20094;-64
2022/03/17 07:06:01;;;;;;;12.48;2.40;;;;;;;;;;5069240;28;20075;-64
2022/03/17 07:08:27;;;;;;;7.80;2.42;;;;;;;;;;5051318;28;20037;-64
2022/03/17 07:10:54;;;;;;;8.13;2.00;;;;;;;;;;5051949;28;20048;-64
2022/03/17 07:13:20;;;;;;;10.13;2.95;;;;;;;;;;5034393;28;20032;-64
2022/03/17 07:15:46;;;;;;;13.80;2.78;;;;;;;;;;5051608;28;20048;-64
2022/03/17 07:18:12;;;;;;;14.57;3.15;;;;;;;;;;5069618;28;20504;-64
2022/03/17 07:20:38;;;;;;;11.77;2.75;;;;;;;;;;5035069;28;20563;-64
2022/03/17 07:23:04;;;;;;;14.85;3.30;;;;;;;;;;5051560;28;20589;-64
2022/03/17 07:25:30;;;;;;;12.60;2.83;;;;;;;;;;5049351;28;20699;-64
2022/03/17 07:27:57;;;;;;;14.10;2.80;;;;;;;;;;5034684;28;20820;-64
2022/03/17 07:30:23;;;;;;;9.50;2.13;;;;;;;;;;5067396;28;20060;-64
2022/03/17 07:32:52;;;;;;;11.60;2.20;;;;;;;;;;5067234;28;20094;-64
2022/03/17 07:35:19;;;;;;;10.45;2.30;;;;;;;;;;5068890;28;20413;-64
2022/03/17 07:37:45;;;;;;;11.15;2.30;;;;;;;;;;5068868;28;20028;-64
2022/03/17 07:40:12;;;;;;;10.65;2.22;;;;;;;;;;5069188;28;20127;-64
2022/03/17 07:42:38;;;;;;;14.48;3.38;;;;;;;;;;5068135;28;20467;-64
2022/03/17 07:45:04;;;;;;;15.80;4.18;;;;;;;;;;5047064;28;20523;-64
2022/03/17 07:47:32;;;;;;;18.05;3.38;;;;;;;;;;5050889;28;20044;-64
2022/03/17 07:50:00;;;;;;;15.52;4.22;;;;;;;;;;5068257;28;20032;-64
2022/03/17 07:52:27;;;;;;;10.43;3.83;;;;;;;;;;5068487;28;20477;-64
2022/03/17 07:54:53;;;;;;;13.55;3.88;;;;;;;;;;5066998;28;20040;-64
2022/03/17 07:57:19;;;;;;;13.77;3.33;;;;;;;;;;5066932;28;20484;-64
2022/03/17 07:59:45;;;;;;;18.58;4.03;;;;;;;;;;5069329;28;20044;-64
2022/03/17 08:02:12;;;;;;;15.25;3.70;;;;;;;;;;5050400;28;20097;-64
2022/03/17 08:04:38;;;;;;;16.52;3.20;;;;;;;;;;5068033;28;20123;-64
2022/03/17 08:07:04;;;;;;;17.25;4.65;;;;;;;;;;5048908;28;20082;-64
2022/03/17 08:09:30;;;;;;;24.20;4.68;;;;;;;;;;5032975;28;20048;-64
2022/03/17 08:11:56;;;;;;;20.70;5.80;;;;;;;;;;5068580;28;20028;-64
2022/03/17 08:14:22;;;;;;;22.75;6.20;;;;;;;;;;5069457;28;20036;-64
2022/03/17 08:16:49;;;;;;;23.13;5.85;;;;;;;;;;5067327;28;20487;-64
2022/03/17 08:19:15;;;;;;;27.02;6.45;;;;;;;;;;5050320;28;20048;-64
2022/03/17 08:21:41;;;;;;;20.08;5.47;;;;;;;;;;5049161;28;20078;-64
2022/03/17 08:24:08;;;;;;;14.20;4.22;;;;;;;;;;5049179;28;20393;-64
2022/03/17 08:26:34;;;;;;;20.08;5.03;;;;;;;;;;5050218;28;20039;-64
2022/03/17 08:29:01;;;;;;;16.67;4.50;;;;;;;;;;5068808;28;20036;-64
2022/03/17 08:31:28;;;;;;;17.67;4.80;;;;;;;;;;5050619;28;20036;-64
2022/03/17 08:33:56;;;;;;;14.95;4.53;;;;;;;;;;5068222;28;20124;-64
2022/03/17 08:36:23;;;;;;;18.92;6.40;;;;;;;;;;5051023;28;20044;-64
2022/03/17 08:38:51;;;;;;;16.77;4.28;;;;;;;;;;5067802;28;20060;-64
2022/03/17 08:41:17;;;;;;;21.38;4.65;;;;;;;;;;5069051;28;20036;-64
2022/03/17 08:43:43;;;;;;;22.20;6.05;;;;;;;;;;5032921;28;20060;-64
2022/03/17 08:51:40;;;;;;;16.80;4.07;;;;;;;;;;5070750;28;20044;-64
2022/03/17 08:54:06;;;;;;;14.85;3.40;;;;;;;;;;5054179;28;20059;-64
2022/03/17 08:56:36;;;;;;;10.85;2.63;;;;;;;;;;5071430;28;20040;-64
2022/03/17 08:59:03;;;;;;;10.77;2.28;;;;;;;;;;5049160;28;20508;-64
2022/03/17 09:01:29;;;;;;;13.35;3.10;;;;;;;;;;5050191;28;20044;-64
2022/03/17 09:03:55;;;;;;;17.88;2.92;;;;;;;;;;5059472;28;20133;-64
2022/03/17 09:06:22;;;;;;;10.75;3.30;;;;;;;;;;5049023;28;20044;-64
2022/03/17 09:08:48;;;;;;;14.27;3.30;;;;;;;;;;5048756;28;20536;-64
2022/03/17 09:11:15;;;;;;;17.30;3.30;;;;;;;;;;5068521;28;20135;-64
2022/03/17 09:13:41;;;;;;;15.18;3.55;;;;;;;;;;5050588;28;20048;-64
2022/03/17 09:16:07;;;;;;;12.40;2.97;;;;;;;;;;5049649;28;20049;-64
2022/03/17 09:18:34;;;;;;;15.35;3.72;;;;;;;;;;5068015;28;20397;-64
2022/03/17 09:21:00;;;;;;;19.05;3.47;;;;;;;;;;5050887;28;20401;-64
2022/03/17 09:23:29;;;;;;;17.92;3.38;;;;;;;;;;5066230;28;20052;-64
2022/03/17 09:25:55;;;;;;;14.38;2.60;;;;;;;;;;5050205;28;20505;-66
2022/03/17 09:28:22;;;;;;;16.70;3.35;;;;;;;;;;5048093;28;20512;-64
2022/03/17 09:30:49;;;;;;;14.57;3.17;;;;;;;;;;5048387;28;20123;-64
2022/03/17 09:33:15;;;;;;;14.70;3.47;;;;;;;;;;5069369;28;20051;-65
2022/03/17 09:35:41;;;;;;;13.85;3.35;;;;;;;;;;5068401;28;20040;-64
2022/03/17 09:38:07;;;;;;;13.02;3.63;;;;;;;;;;5065022;28;20516;-65
2022/03/17 09:40:38;;;;;;;12.20;3.85;;;;;;;;;;5049771;28;20056;-64
2022/03/17 09:43:21;;;;;;;12.18;3.20;;;;;;;;;;5068787;28;20063;-64
2022/03/17 09:45:52;;;;;;;16.35;3.47;;;;;;;;;;5064659;28;20053;-64
2022/03/17 09:48:18;;;;;;;14.77;3.35;;;;;;;;;;5048077;28;20473;-64
2022/03/17 09:50:46;;;;;;;13.65;2.95;;;;;;;;;;5047949;28;20041;-63
2022/03/17 09:53:12;;;;;;;11.43;3.10;;;;;;;;;;5049131;28;20487;-64
2022/03/17 09:55:43;;;;;;;8.38;2.65;;;;;;;;;;5047601;28;20048;-64
2022/03/17 09:58:10;;;;;;;11.05;3.25;;;;;;;;;;5068931;28;20047;-64
2022/03/17 10:00:48;;;;;;;14.60;2.60;;;;;;;;;;5047336;28;20071;-64
2022/03/17 10:03:18;;;;;;;9.30;2.78;;;;;;;;;;5049715;28;20056;-64
2022/03/17 10:05:45;;;;;;;7.95;2.47;;;;;;;;;;5067267;28;20435;-64
2022/03/17 10:08:11;;;;;;;12.57;2.47;;;;;;;;;;5048785;28;20044;-64
2022/03/17 10:10:38;;;;;;;9.13;2.50;;;;;;;;;;5048503;28;20055;-64
2022/03/17 10:13:05;;;;;;;12.23;2.78;;;;;;;;;;5050350;28;20182;-64
2022/03/17 10:15:31;;;;;;;12.25;2.20;;;;;;;;;;5047266;28;20056;-64
2022/03/17 10:17:57;;;;;;;9.75;1.83;;;;;;;;;;5048361;28;20041;-64
2022/03/17 10:20:25;;;;;;;11.60;1.92;;;;;;;;;;5046950;28;20075;-64
2022/03/17 10:22:52;;;;;;;10.45;2.17;;;;;;;;;;5048506;28;20740;-64
2022/03/17 10:25:22;;;;;;;7.35;1.65;;;;;;;;;;5066942;28;20159;-64
2022/03/17 10:27:54;;;;;;;8.30;1.85;;;;;;;;;;5032395;28;20098;-64
2022/03/17 10:30:30;;;;;;;8.73;1.80;;;;;;;;;;5048426;28;20038;-64
2022/03/17 10:33:14;;;;;;;8.90;1.95;;;;;;;;;;5048678;28;20074;-64
2022/03/17 10:35:45;;;;;;;5.32;1.70;;;;;;;;;;5066194;28;20036;-64
2022/03/17 10:38:22;;;;;;;8.43;2.40;;;;;;;;;;5066176;28;20198;-64
2022/03/17 10:41:05;;;;;;;9.65;1.95;;;;;;;;;;5049253;28;20190;-64
2022/03/17 10:43:31;;;;;;;8.93;2.17;;;;;;;;;;5032825;28;20068;-64
2022/03/17 10:46:04;;;;;;;13.00;2.90;;;;;;;;;;5049630;28;20072;-63
2022/03/17 10:48:30;;;;;;;15.13;2.78;;;;;;;;;;5048355;28;20041;-64
2022/03/17 10:50:56;;;;;;;10.27;1.90;;;;;;;;;;5067372;28;20094;-64
2022/03/17 10:53:29;;;;;;;8.65;2.40;;;;;;;;;;5048360;28;21401;-64
2022/03/17 10:56:09;;;;;;;7.53;2.03;;;;;;;;;;5066247;28;20063;-64
2022/03/17 10:58:43;;;;;;;8.20;1.75;;;;;;;;;;5047632;28;20048;-64
2022/03/17 11:01:10;;;;;;;7.03;2.03;;;;;;;;;;5045813;28;20051;-64
2022/03/17 11:03:36;;;;;;;6.38;1.88;;;;;;;;;;5047247;28;20060;-64
2022/03/17 11:06:06;;;;;;;10.38;2.15;;;;;;;;;;5048360;28;20049;-64
2022/03/17 11:08:33;;;;;;;6.07;1.98;;;;;;;;;;5046475;28;20052;-64
2022/03/17 11:10:59;;;;;;;9.05;2.15;;;;;;;;;;5064323;28;20044;-64
2022/03/17 11:13:26;;;;;;;9.77;1.73;;;;;;;;;;5066079;28;20693;-64
2022/03/17 11:16:01;;;;;;;8.95;1.77;;;;;;;;;;5068335;28;20041;-64
2022/03/17 11:18:27;;;;;;;11.02;2.08;;;;;;;;;;5064718;28;20097;-64
2022/03/17 11:21:12;;;;;;;9.48;2.17;;;;;;;;;;5066803;28;20037;-64
2022/03/17 11:23:55;;;;;;;9.85;1.92;;;;;;;;;;5049622;28;20504;-64
2022/03/17 11:26:40;;;;;;;7.90;2.13;;;;;;;;;;5065423;28;20782;-64
2022/03/17 11:29:08;;;;;;;10.10;1.70;;;;;;;;;;5048593;28;20056;-64
2022/03/17 11:31:50;;;;;;;10.02;1.92;;;;;;;;;;5049555;28;20045;-64
2022/03/17 11:34:39;;;;;;;9.75;2.10;;;;;;;;;;5065421;28;20048;-64
2022/03/17 11:37:33;;;;;;;9.68;1.92;;;;;;;;;;5046182;28;20090;-64
2022/03/17 11:40:08;;;;;;;8.40;2.13;;;;;;;;;;5043847;28;20044;-65
2022/03/17 11:42:42;;;;;;;11.57;2.65;;;;;;;;;;5050257;28;20056;-64
2022/03/17 11:45:14;;;;;;;9.70;2.45;;;;;;;;;;5066812;28;20052;-64
2022/03/17 11:47:57;;;;;;;12.20;1.85;;;;;;;;;;5047267;28;20560;-64
2022/03/17 11:50:40;;;;;;;8.18;2.17;;;;;;;;;;5047462;28;20051;-64
2022/03/17 11:53:15;;;;;;;13.88;2.17;;;;;;;;;;5050274;28;20497;-64
2022/03/17 11:55:47;;;;;;;6.27;2.00;;;;;;;;;;5067555;28;20089;-64
2022/03/17 11:58:16;;;;;;;11.52;2.10;;;;;;;;;;5049247;28;20313;-64
2022/03/17 12:00:52;;;;;;;7.70;1.95;;;;;;;;;;5049566;28;20080;-64
2022/03/17 12:03:41;;;;;;;8.95;1.80;;;;;;;;;;5049062;28;20173;-64
2022/03/17 12:06:09;;;;;;;9.82;2.17;;;;;;;;;;5038464;28;20044;-64
2022/03/17 12:08:39;;;;;;;9.35;2.10;;;;;;;;;;5048952;28;20723;-64
2022/03/17 12:11:06;;;;;;;10.93;2.20;;;;;;;;;;5066156;28;20032;-64
2022/03/17 12:13:35;;;;;;;11.82;2.08;;;;;;;;;;5049459;28;20055;-64
2022/03/17 12:16:01;;;;;;;10.93;2.65;;;;;;;;;;5047949;28;20044;-64
2022/03/17 12:18:31;;;;;;;10.35;2.30;;;;;;;;;;5049221;28;20048;-64
2022/03/17 12:20:57;;;;;;;6.38;2.20;;;;;;;;;;5053776;28;20127;-64
2022/03/17 12:23:42;;;;;;;11.20;2.17;;;;;;;;;;5053736;28;20044;-64
2022/03/17 12:26:08;;;;;;;9.80;2.42;;;;;;;;;;5053126;28;20512;-64
2022/03/17 12:28:34;;;;;;;8.15;2.38;;;;;;;;;;5053086;28;20539;-64
2022/03/17 12:31:00;;;;;;;8.23;1.98;;;;;;;;;;5051422;28;20381;-64
2022/03/17 12:33:26;;;;;;;11.45;2.20;;;;;;;;;;5069081;28;20074;-64
2022/03/17 12:36:05;;;;;;;9.15;1.50;;;;;;;;;;5071517;28;20040;-64
2022/03/17 12:38:32;;;;;;;10.75;2.22;;;;;;;;;;5071113;28;20044;-64
2022/03/17 12:41:00;;;;;;;12.13;2.03;;;;;;;;;;5054063;28;20389;-64
2022/03/17 12:43:26;;;;;;;10.57;2.00;;;;;;;;;;5053066;28;20044;-64
2022/03/17 12:45:53;;;;;;;8.93;1.85;;;;;;;;;;5068955;28;20489;-64
2022/03/17 12:48:20;;;;;;;8.05;2.15;;;;;;;;;;5068567;28;20565;-64
2022/03/17 12:50:47;;;;;;;10.27;1.80;;;;;;;;;;5068917;28;20136;-64
2022/03/17 12:53:14;;;;;;;6.10;1.67;;;;;;;;;;5069614;28;20423;-64
2022/03/17 12:55:40;;;;;;;9.68;1.90;;;;;;;;;;5048707;28;20182;-64
2022/03/17 12:58:06;;;;;;;8.27;1.70;;;;;;;;;;5050615;28;20110;-64
2022/03/17 13:00:33;;;;;;;12.38;1.83;;;;;;;;;;5069974;28;20067;-64
2022/03/17 13:03:00;;;;;;;11.10;2.03;;;;;;;;;;5068308;28;20063;-64
2022/03/17 13:08:12;;;;;;;12.27;2.33;;;;;;;;;;5068110;28;20122;-64
2022/03/17 13:16:10;;;;;;;7.68;1.50;;;;;;;;;;5051628;28;20055;-64
2022/03/17 13:18:39;;;;;;;8.70;1.50;;;;;;;;;;5050738;28;20032;-64
2022/03/17 13:21:06;;;;;;;11.88;2.13;;;;;;;;;;5067586;28;20045;-64
2022/03/17 13:23:35;;;;;;;7.78;1.60;;;;;;;;;;5069139;28;20047;-64
2022/03/17 13:26:02;;;;;;;12.07;2.33;;;;;;;;;;5050897;28;20488;-64
2022/03/17 13:28:28;;;;;;;8.45;2.25;;;;;;;;;;5070093;28;20366;-64
2022/03/17 13:30:54;;;;;;;6.88;1.70;;;;;;;;;;5049579;28;20053;-64
2022/03/17 13:33:33;;;;;;;11.80;1.90;;;;;;;;;;5067219;28;20041;-64
2022/03/17 13:36:00;;;;;;;9.80;1.90;;;;;;;;;;5033428;28;20063;-64
2022/03/17 13:38:34;;;;;;;8.57;1.45;;;;;;;;;;5032520;28;20044;-64
2022/03/17 13:41:00;;;;;;;9.75;2.17;;;;;;;;;;5048643;28;20048;-64
2022/03/17 13:43:26;;;;;;;9.77;1.70;;;;;;;;;;5068742;28;20413;-64
2022/03/17 13:45:53;;;;;;;6.15;1.52;;;;;;;;;;5049451;28;20033;-64
2022/03/17 13:48:23;;;;;;;8.98;2.00;;;;;;;;;;5049213;28;20653;-64
2022/03/17 13:50:49;;;;;;;12.85;1.98;;;;;;;;;;5067983;28;20044;-65
2022/03/17 13:53:16;;;;;;;7.72;1.70;;;;;;;;;;5067856;28;20067;-65
2022/03/17 13:55:59;;;;;;;9.20;1.67;;;;;;;;;;5067688;28;20127;-64
2022/03/17 13:58:32;;;;;;;6.47;1.65;;;;;;;;;;5067287;28;20416;-64
2022/03/17 14:01:08;;;;;;;7.47;1.45;;;;;;;;;;5069250;28;20037;-64
2022/03/17 14:03:35;;;;;;;6.47;1.58;;;;;;;;;;5050965;28;20056;-64
2022/03/17 14:06:04;;;;;;;7.50;1.70;;;;;;;;;;5051082;28;20456;-64
2022/03/17 14:08:32;;;;;;;8.48;1.90;;;;;;;;;;5048188;28;20072;-65
2022/03/17 14:10:58;;;;;;;5.15;1.42;;;;;;;;;;5067556;28;20047;-64
2022/03/17 14:13:25;;;;;;;8.65;1.65;;;;;;;;;;5067022;28;20072;-64
2022/03/17 14:15:52;;;;;;;8.63;1.88;;;;;;;;;;5068219;28;20028;-64
2022/03/17 14:18:19;;;;;;;9.00;1.95;;;;;;;;;;5046558;28;20084;-64
2022/03/17 14:20:45;;;;;;;7.85;1.58;;;;;;;;;;5049481;28;20114;-64
2022/03/17 14:25:56;;;;;;;10.38;1.55;;;;;;;;;;5065709;28;20051;-64
2022/03/17 14:28:22;;;;;;;7.93;1.30;;;;;;;;;;5049186;28;20087;-64
2022/03/17 14:30:48;;;;;;;6.63;1.83;;;;;;;;;;5068068;28;20048;-64
2022/03/17 14:33:14;;;;;;;9.05;1.95;;;;;;;;;;5068112;28;20037;-64
2022/03/17 14:35:40;;;;;;;7.05;1.58;;;;;;;;;;5051521;28;20499;-64
2022/03/17 14:38:07;;;;;;;10.80;1.55;;;;;;;;;;5068569;28;21285;-64
2022/03/17 14:40:33;;;;;;;8.63;1.58;;;;;;;;;;5030940;28;20055;-64
2022/03/17 14:42:59;;;;;;;8.27;1.50;;;;;;;;;;5047574;28;20087;-68
2022/03/17 14:45:26;;;;;;;7.43;1.90;;;;;;;;;;5046511;28;20535;-68
2022/03/17 14:47:53;;;;;;;8.35;1.85;;;;;;;;;;5048181;28;20185;-68
2022/03/17 14:50:19;;;;;;;8.38;1.55;;;;;;;;;;5062745;28;20386;-68
2022/03/17 14:52:47;;;;;;;9.50;1.90;;;;;;;;;;5044342;28;20041;-68
2022/03/17 14:55:14;;;;;;;8.43;1.48;;;;;;;;;;5065598;28;20048;-68
2022/03/17 14:57:40;;;;;;;7.00;1.40;;;;;;;;;;5048123;28;20496;-68
2022/03/17 15:00:06;;;;;;;8.48;2.08;;;;;;;;;;5048154;28;20531;-68
2022/03/17 15:02:33;;;;;;;11.23;1.73;;;;;;;;;;5068045;28;20037;-68